Andover, New York
Current Conditions -  °F | °C
As of 4:30 PM on Friday 31 Oct 2014 (Local Time) from KELZ Reporting Station
Light Rain Light Rain  
Wind Chill: 41°   Ceiling: 1600
Heat Index: 41°   Visibility: 10mi
Dew Point: 36°   Wind: 0mph
Humidity: 82%   Direction: NA
Pressure: 29.88"   Gusts: NA
Location:  42.16°N, 77.8°W
Report Text: KELZ 312030Z AUTO 00000KT 10SM -RA BKN016 OVC028 05/02 A2988 RMK AO2 P0000 T00500022
Loading
Personal Weather Stations






























Interactive Weather Map
Tropical Storm Tracking
New forecast layout! Learn more

10-Day Weather Forecast

Advertisements
Track Severe Weather on mobile